Time;durP1;ratioP1;P1;durP2;ratioP2;P2;SDS_P1;SDS_P2;PMS_P1;PMS_P2;Temp;Humidity;BMP_temperature;BMP_pressure;BME280_temperature;BME280_humidity;BME280_pressure;Samples;Min_cycle;Max_cycle;Signal;HPM_P1;HPM_P2
2021/12/17 00:01:01;;;;;;;18.15;9.32;;;;;;;17.98;47.56;103705.13;4927125;29;20030;-59
2021/12/17 00:04:14;;;;;;;14.45;8.77;;;;;;;17.98;47.90;103704.25;4928115;29;20020;-59
2021/12/17 00:08:51;;;;;;;15.88;9.20;;;;;;;17.94;47.91;103691.91;4946921;29;20094;-58
2021/12/17 00:11:17;;;;;;;16.92;9.63;;;;;;;17.94;48.34;103695.50;4927512;28;20034;-59
2021/12/17 00:13:45;;;;;;;17.13;8.88;;;;;;;17.94;48.73;103698.22;4947453;29;20106;-58
2021/12/17 00:16:16;;;;;;;19.73;9.02;;;;;;;17.91;48.70;103698.41;4951392;29;20070;-59
2021/12/17 00:18:58;;;;;;;20.08;8.65;;;;;;;17.93;48.06;103688.31;4951506;29;20039;-58
2021/12/17 00:48:47;;;;;;;16.63;9.25;;;;;;;17.62;48.47;103663.41;4940530;29;20098;-58
2021/12/17 00:54:13;;;;;;;20.25;9.43;;;;;;;17.69;48.31;103676.47;4940308;29;20042;-58
2021/12/17 00:56:38;;;;;;;20.55;9.35;;;;;;;17.70;48.32;103678.19;4923301;29;20057;-58
2021/12/17 00:59:04;;;;;;;19.48;9.15;;;;;;;17.72;48.41;103676.25;4940360;29;20119;-58
2021/12/17 01:01:29;;;;;;;16.38;9.07;;;;;;;17.73;48.29;103677.97;4938829;29;20040;-59
2021/12/17 01:03:56;;;;;;;22.02;10.77;;;;;;;17.74;48.77;103678.84;4938956;29;20038;-58
2021/12/17 01:06:21;;;;;;;17.13;9.18;;;;;;;17.75;48.16;103675.19;4938913;29;20030;-59
2021/12/17 01:08:47;;;;;;;21.73;9.35;;;;;;;17.75;48.38;103659.78;4940038;29;20027;-58
2021/12/17 01:11:13;;;;;;;17.02;9.23;;;;;;;17.75;49.17;103657.06;4938267;29;20044;-59
2021/12/17 01:13:40;;;;;;;18.33;9.65;;;;;;;17.77;49.00;103656.97;4940095;29;20560;-59
2021/12/17 01:16:06;;;;;;;20.63;10.38;;;;;;;17.75;49.10;103656.19;4940037;28;20032;-59
2021/12/17 01:18:46;;;;;;;25.55;10.63;;;;;;;17.75;48.92;103651.66;4938693;29;20028;-58
2021/12/17 01:42:56;;;;;;;25.75;12.68;;;;;;;17.59;48.65;103656.38;4958296;29;20118;-59
2021/12/17 01:45:27;;;;;;;23.42;11.32;;;;;;;17.56;49.38;103648.44;4941347;29;20031;-58
2021/12/17 01:47:52;;;;;;;28.02;11.60;;;;;;;17.56;49.14;103644.91;4942133;29;20035;-58
2021/12/17 01:56:15;;;;;;;25.30;12.05;;;;;;;17.50;48.38;103658.84;4943728;29;20061;-58
2021/12/17 02:01:26;;;;;;;25.17;11.98;;;;;;;17.46;49.06;103650.91;4958333;29;20038;-59
2021/12/17 02:03:51;;;;;;;23.75;12.13;;;;;;;17.40;47.98;103636.91;4958385;29;20052;-59
2021/12/17 02:06:18;;;;;;;25.30;11.85;;;;;;;17.42;49.04;103640.34;4958243;29;20035;-58
2021/12/17 02:08:46;;;;;;;25.75;11.52;;;;;;;17.41;49.50;103642.22;4957838;29;20031;-59
2021/12/17 02:30:30;;;;;;;35.85;12.68;;;;;;;17.25;48.54;103656.91;4957997;29;20104;-59
2021/12/17 02:32:49;;;;;;;35.88;15.68;;;;;;;17.23;48.91;103659.72;4942622;29;20039;-58
2021/12/17 02:37:48;;;;;;;32.33;14.50;;;;;;;17.22;48.39;103660.72;4957063;28;20025;-59
2021/12/17 02:42:31;;;;;;;42.78;16.52;;;;;;;17.22;49.56;103659.84;4924866;29;20281;-58
2021/12/17 02:45:46;;;;;;;39.38;14.65;;;;;;;17.20;48.54;103672.59;4957725;29;20027;-58
2021/12/17 02:48:13;;;;;;;40.85;15.55;;;;;;;17.18;49.25;103663.69;4957710;29;20035;-59
2021/12/17 02:50:44;;;;;;;37.17;15.95;;;;;;;17.18;49.14;103664.56;4957565;29;20038;-59
2021/12/17 02:53:09;;;;;;;44.95;16.33;;;;;;;17.18;49.34;103664.56;4957237;29;20031;-58
2021/12/17 02:55:38;;;;;;;36.75;15.88;;;;;;;17.19;50.14;103670.88;4957337;29;20060;-58
2021/12/17 02:58:04;;;;;;;40.92;16.27;;;;;;;17.16;50.03;103661.13;4956841;29;20034;-59
2021/12/17 03:00:31;;;;;;;43.15;14.55;;;;;;;17.15;50.10;103669.31;4956931;29;20070;-58
2021/12/17 03:02:56;;;;;;;38.47;16.23;;;;;;;17.13;49.90;103669.44;4940254;29;20027;-59
2021/12/17 03:05:23;;;;;;;35.92;15.05;;;;;;;17.11;48.58;103667.81;4956703;29;20037;-59
2021/12/17 03:07:50;;;;;;;38.55;14.02;;;;;;;17.08;49.98;103668.88;4939613;29;20046;-58
2021/12/17 03:10:16;;;;;;;34.90;14.68;;;;;;;17.07;49.93;103664.44;4940257;29;20054;-58
2021/12/17 03:12:52;;;;;;;37.33;15.30;;;;;;;17.07;49.83;103666.25;4957175;29;20031;-58
2021/12/17 03:23:30;;;;;;;29.05;14.45;;;;;;;16.97;49.76;103665.16;4956428;29;20524;-58
2021/12/17 03:26:02;;;;;;;36.87;14.63;;;;;;;16.95;50.71;103657.09;4956673;29;20031;-59
2021/12/17 03:28:28;;;;;;;29.38;13.15;;;;;;;16.94;50.08;103659.94;4956463;29;20023;-58
2021/12/17 03:30:54;;;;;;;38.45;14.95;;;;;;;16.93;49.38;103656.34;4956766;29;20036;-59
2021/12/17 03:33:21;;;;;;;29.15;14.27;;;;;;;16.94;50.39;103657.22;4956657;29;20400;-58
2021/12/17 03:35:47;;;;;;;27.58;13.88;;;;;;;16.94;49.60;103659.94;4956435;29;20035;-59
2021/12/17 03:38:13;;;;;;;31.00;13.32;;;;;;;16.89;49.55;103658.38;4956561;29;20476;-58
2021/12/17 03:40:40;;;;;;;32.53;14.35;;;;;;;16.87;50.23;103657.63;4956772;29;20035;-59
2021/12/17 03:43:12;;;;;;;35.10;14.68;;;;;;;16.85;50.80;103659.56;4956474;29;20114;-58
2021/12/17 03:45:37;;;;;;;30.30;14.25;;;;;;;16.86;49.04;103666.69;4956735;29;20027;-58
2021/12/17 03:48:03;;;;;;;29.95;13.95;;;;;;;16.83;49.75;103653.34;4956316;28;20038;-58
2021/12/17 03:50:29;;;;;;;35.17;16.08;;;;;;;16.82;50.17;103667.00;4938546;29;20035;-58
2021/12/17 03:52:54;;;;;;;37.30;15.65;;;;;;;16.80;49.43;103668.97;4956325;29;20085;-58
2021/12/17 03:55:19;;;;;;;37.10;15.48;;;;;;;16.79;50.94;103673.50;4956303;29;20369;-58
2021/12/17 03:57:45;;;;;;;37.50;14.73;;;;;;;16.79;49.64;103673.50;4956432;29;20027;-58
2021/12/17 04:00:12;;;;;;;33.08;15.15;;;;;;;16.78;51.08;103663.63;4956427;29;20066;-59
2021/12/17 04:02:38;;;;;;;34.97;14.27;;;;;;;16.78;49.30;103669.03;4939159;29;20031;-58
2021/12/17 04:05:04;;;;;;;33.63;15.45;;;;;;;16.79;49.73;103670.78;4956004;29;20031;-59
2021/12/17 04:07:29;;;;;;;34.35;14.43;;;;;;;16.80;51.02;103666.25;4938789;29;20031;-59
2021/12/17 04:09:55;;;;;;;33.90;16.30;;;;;;;16.79;49.85;103665.38;4956007;29;20027;-59
2021/12/17 04:12:26;;;;;;;37.22;14.65;;;;;;;16.79;49.92;103662.66;4956135;29;20054;-59
2021/12/17 04:14:52;;;;;;;46.22;14.90;;;;;;;16.78;50.49;103647.38;4956320;29;20507;-59
2021/12/17 04:17:23;;;;;;;45.63;15.13;;;;;;;16.78;49.64;103662.75;4956090;29;20027;-58
2021/12/17 04:19:49;;;;;;;41.60;15.60;;;;;;;16.77;50.88;103663.75;4956564;29;20034;-58
2021/12/17 04:22:14;;;;;;;32.63;13.48;;;;;;;16.74;50.52;103659.41;4956153;29;20475;-58
2021/12/17 04:24:40;;;;;;;37.40;15.23;;;;;;;16.76;50.67;103662.88;4956078;29;20024;-59
2021/12/17 04:27:06;;;;;;;35.38;14.55;;;;;;;16.75;49.80;103661.13;4956069;29;20079;-59
2021/12/17 04:29:33;;;;;;;41.50;14.73;;;;;;;16.72;49.79;103666.72;4955919;29;20031;-59
2021/12/17 04:31:58;;;;;;;32.42;13.65;;;;;;;16.70;51.07;103657.84;4939008;29;20074;-58
2021/12/17 04:34:24;;;;;;;37.10;14.15;;;;;;;16.67;50.31;103658.03;4938566;29;20036;-59
2021/12/17 04:36:52;;;;;;;37.30;15.05;;;;;;;16.68;50.43;103659.78;4938977;29;20495;-59
2021/12/17 04:39:19;;;;;;;38.08;13.90;;;;;;;16.70;50.35;103663.25;4955831;29;20495;-58
2021/12/17 04:41:54;;;;;;;47.70;15.13;;;;;;;16.68;50.35;103664.34;4939155;29;20039;-58
2021/12/17 04:44:26;;;;;;;29.50;13.77;;;;;;;16.69;50.77;103669.66;4940095;29;20485;-59
2021/12/17 04:57:52;;;;;;;36.92;15.57;;;;;;;16.69;50.37;103666.97;4928213;29;20037;-58
2021/12/17 05:00:25;;;;;;;31.88;14.18;;;;;;;16.73;51.09;103659.47;4956670;28;20035;-58
2021/12/17 05:02:53;;;;;;;32.10;14.75;;;;;;;16.73;49.89;103656.78;4959371;29;20536;-59
2021/12/17 05:05:21;;;;;;;35.88;12.75;;;;;;;16.73;51.46;103657.66;4959340;29;20580;-58
2021/12/17 05:07:55;;;;;;;32.17;13.23;;;;;;;16.73;49.77;103657.66;4941877;29;20022;-59
2021/12/17 05:18:43;;;;;;;35.75;13.43;;;;;;;16.69;50.56;103656.13;4959263;29;20102;-59
2021/12/17 05:21:08;;;;;;;27.00;11.95;;;;;;;16.70;50.19;103663.25;4944300;29;20114;-59
2021/12/17 05:23:40;;;;;;;30.52;13.82;;;;;;;16.69;51.33;103666.97;4958330;29;20059;-59
2021/12/17 05:26:12;;;;;;;30.33;12.63;;;;;;;16.69;51.71;103666.09;4941470;29;20031;-58
2021/12/17 05:28:38;;;;;;;26.63;11.55;;;;;;;16.69;50.88;103666.97;4941668;29;20484;-59
2021/12/17 05:31:04;;;;;;;31.67;12.70;;;;;;;16.66;51.24;103667.16;4941686;29;20031;-58
2021/12/17 05:33:29;;;;;;;31.75;12.27;;;;;;;16.67;50.30;103668.88;4958603;29;20400;-59
2021/12/17 05:35:56;;;;;;;34.35;12.63;;;;;;;16.66;51.05;103661.75;4941570;29;20036;-60
2021/12/17 05:38:23;;;;;;;29.45;11.55;;;;;;;16.64;50.88;103669.06;4941847;29;20556;-58
2021/12/17 05:40:49;;;;;;;31.90;12.68;;;;;;;16.65;51.70;103669.94;4941511;29;20050;-58
2021/12/17 05:43:15;;;;;;;27.38;10.90;;;;;;;16.61;50.31;103671.97;4941500;29;20039;-59
2021/12/17 05:48:09;;;;;;;35.13;12.88;;;;;;;16.60;51.41;103662.13;4941391;29;20027;-59
2021/12/17 05:50:39;;;;;;;31.67;11.55;;;;;;;16.60;51.25;103663.97;4941390;29;20042;-58
2021/12/17 05:53:05;;;;;;;27.25;12.93;;;;;;;16.59;50.05;103660.38;4958515;29;20054;-58
2021/12/17 05:55:31;;;;;;;28.45;12.45;;;;;;;16.56;51.20;103666.00;4940991;29;20031;-58
2021/12/17 05:57:56;;;;;;;38.03;12.60;;;;;;;16.57;50.09;103666.88;4940983;29;20037;-59
2021/12/17 06:00:23;;;;;;;34.70;12.70;;;;;;;16.56;51.20;103668.69;4958245;29;20093;-58
2021/12/17 06:02:48;;;;;;;34.38;13.13;;;;;;;16.55;51.06;103672.38;4940871;29;20032;-58
2021/12/17 06:05:14;;;;;;;31.73;12.40;;;;;;;16.52;51.05;103674.38;4941116;29;20074;-59
2021/12/17 06:07:40;;;;;;;32.65;12.95;;;;;;;16.51;50.17;103675.34;4924985;29;20020;-58
2021/12/17 06:10:08;;;;;;;36.17;14.15;;;;;;;16.48;50.60;103679.09;4940978;29;20039;-59
2021/12/17 06:12:33;;;;;;;36.30;12.95;;;;;;;16.45;51.44;103676.59;4939460;29;20472;-58
2021/12/17 06:14:58;;;;;;;33.22;13.65;;;;;;;16.44;51.14;103688.41;4957911;29;20086;-58
2021/12/17 06:17:24;;;;;;;33.85;12.13;;;;;;;16.43;51.32;103686.66;4957987;29;20047;-58
2021/12/17 06:19:49;;;;;;;40.63;13.80;;;;;;;16.36;51.25;103674.47;4940730;29;20106;-58
2021/12/17 06:22:15;;;;;;;32.58;12.18;;;;;;;16.36;50.40;103679.03;4924664;29;20532;-59
2021/12/17 06:24:44;;;;;;;34.22;12.07;;;;;;;16.36;50.63;103685.28;4957449;29;20460;-58
2021/12/17 06:27:11;;;;;;;36.40;13.00;;;;;;;16.35;50.55;103683.56;4957677;29;20034;-59
2021/12/17 06:29:37;;;;;;;34.00;12.02;;;;;;;16.35;51.64;103685.41;4957817;29;20374;-58
2021/12/17 06:32:02;;;;;;;31.92;10.80;;;;;;;16.33;50.39;103682.81;4957462;29;20038;-58
2021/12/17 06:34:28;;;;;;;27.20;10.45;;;;;;;16.33;50.63;103687.34;4957744;29;20384;-58
2021/12/17 06:36:53;;;;;;;31.63;11.43;;;;;;;16.30;50.17;103683.84;4940289;29;20075;-59
2021/12/17 06:39:19;;;;;;;28.15;10.70;;;;;;;16.32;51.65;103683.75;4957469;29;20118;-58
2021/12/17 06:41:44;;;;;;;32.03;11.00;;;;;;;16.31;51.60;103688.28;4940143;29;20086;-58
2021/12/17 06:44:12;;;;;;;38.53;11.40;;;;;;;16.34;50.14;103698.03;4957435;29;20059;-58
2021/12/17 07:00:17;;;;;;;27.38;10.48;;;;;;;16.32;50.52;103700.00;4942208;29;20113;-58
2021/12/17 07:10:56;;;;;;;31.75;10.52;;;;;;;16.31;51.58;103698.25;4956990;29;20042;-58
2021/12/17 07:24:14;;;;;;;27.33;9.95;;;;;;;16.31;51.00;103701.81;4956575;28;20059;-59
2021/12/17 07:35:02;;;;;;;31.38;10.82;;;;;;;16.32;50.24;103700.00;4956672;29;20451;-58
2021/12/17 07:39:42;;;;;;;32.28;10.82;;;;;;;16.31;50.37;103696.41;4939631;29;20042;-58
2021/12/17 07:42:08;;;;;;;30.33;10.07;;;;;;;16.30;50.60;103691.09;4956503;29;20110;-58
2021/12/17 07:44:33;;;;;;;30.50;10.30;;;;;;;16.31;50.22;103695.53;4956400;29;20031;-58
2021/12/17 07:46:59;;;;;;;32.22;10.98;;;;;;;16.31;50.95;103699.13;4939227;29;20095;-58
2021/12/17 07:49:24;;;;;;;27.90;9.77;;;;;;;16.32;51.59;103694.56;4939140;29;20035;-58
2021/12/17 07:51:49;;;;;;;34.80;10.98;;;;;;;16.27;51.66;103685.88;4939548;29;20093;-59
2021/12/17 07:54:15;;;;;;;34.97;11.25;;;;;;;16.34;50.92;103708.88;4956664;29;20035;-58
2021/12/17 07:56:40;;;;;;;35.92;11.23;;;;;;;16.34;50.08;103700.75;4956034;29;20569;-58
2021/12/17 07:59:07;;;;;;;34.13;9.70;;;;;;;16.35;49.98;103704.34;4938804;29;20028;-58
2021/12/17 08:01:35;;;;;;;33.83;10.90;;;;;;;16.34;51.68;103703.47;4955924;29;20110;-57
2021/12/17 08:04:00;;;;;;;32.60;11.02;;;;;;;16.33;50.38;103707.16;4956461;29;20500;-58
2021/12/17 08:06:26;;;;;;;29.95;9.95;;;;;;;16.36;51.63;103708.78;4955846;29;20050;-58
2021/12/17 08:08:52;;;;;;;29.05;10.10;;;;;;;16.38;51.79;103706.84;4955773;29;20049;-58
2021/12/17 08:11:17;;;;;;;29.88;11.15;;;;;;;16.36;51.38;103697.97;4956408;29;20027;-58
2021/12/17 08:13:45;;;;;;;32.42;11.43;;;;;;;16.33;51.32;103701.75;4938749;29;20023;-59
2021/12/17 08:26:56;;;;;;;34.47;10.98;;;;;;;16.34;51.38;103708.88;4956019;29;20574;-58
2021/12/17 08:31:48;;;;;;;25.65;9.13;;;;;;;16.34;50.53;103703.47;4956304;29;20061;-58
2021/12/17 08:34:13;;;;;;;31.05;10.05;;;;;;;16.35;51.63;103702.50;4955862;28;20058;-58
2021/12/17 08:36:39;;;;;;;30.92;10.85;;;;;;;16.36;50.67;103712.34;4958653;29;20035;-58
2021/12/17 08:39:04;;;;;;;36.15;11.57;;;;;;;16.37;50.82;103718.63;4942446;29;20024;-58
2021/12/17 08:41:29;;;;;;;34.42;9.95;;;;;;;16.38;51.52;103714.97;4959448;29;20027;-58
2021/12/17 08:43:55;;;;;;;30.42;10.02;;;;;;;16.38;50.19;103718.53;4959454;29;20477;-59
2021/12/17 08:46:21;;;;;;;32.35;10.82;;;;;;;16.39;51.79;103714.84;4959771;29;20056;-59
2021/12/17 08:48:46;;;;;;;29.15;9.75;;;;;;;16.37;50.74;103710.50;4959393;29;20023;-59
2021/12/17 08:51:11;;;;;;;29.13;9.93;;;;;;;16.40;51.45;103724.72;4959343;29;20512;-58
2021/12/17 08:53:37;;;;;;;30.20;10.48;;;;;;;16.36;50.75;103717.75;4959348;29;20491;-59
2021/12/17 08:56:04;;;;;;;29.60;9.60;;;;;;;16.39;51.33;103724.84;4959183;29;20043;-58
2021/12/17 08:58:29;;;;;;;29.50;9.60;;;;;;;16.38;50.12;103733.91;4942165;29;20035;-58
2021/12/17 09:00:55;;;;;;;32.38;10.13;;;;;;;16.36;50.30;103733.97;4959090;29;20034;-58
2021/12/17 09:03:20;;;;;;;38.97;12.02;;;;;;;16.41;50.04;103737.28;4959126;29;20035;-58
2021/12/17 09:05:46;;;;;;;31.85;9.82;;;;;;;16.42;50.43;103748.97;4941779;29;20027;-58
2021/12/17 09:08:13;;;;;;;28.75;10.18;;;;;;;16.42;51.04;103749.84;4958907;29;20023;-58
2021/12/17 09:10:39;;;;;;;26.45;10.23;;;;;;;16.42;50.95;103752.53;4941475;29;20085;-58
2021/12/17 09:13:05;;;;;;;28.20;10.52;;;;;;;16.42;50.45;103755.25;4958792;29;20491;-58
2021/12/17 09:15:31;;;;;;;29.65;9.70;;;;;;;16.42;51.35;103760.66;4959063;29;20472;-59
2021/12/17 09:17:56;;;;;;;31.38;10.95;;;;;;;16.41;51.30;103753.53;4958910;29;20038;-58
2021/12/17 09:20:22;;;;;;;24.40;9.48;;;;;;;16.41;50.57;103742.72;4959107;29;20027;-59
2021/12/17 09:22:47;;;;;;;30.52;10.68;;;;;;;16.37;51.72;103741.16;4958952;29;20027;-58
2021/12/17 09:25:14;;;;;;;25.58;9.35;;;;;;;16.40;51.24;103757.19;4958804;29;20147;-59
2021/12/17 09:27:40;;;;;;;34.25;10.40;;;;;;;16.41;50.67;103758.94;4959138;29;20142;-58
2021/12/17 09:30:08;;;;;;;32.08;10.95;;;;;;;16.41;51.65;103758.06;4958864;29;20488;-58
2021/12/17 09:32:34;;;;;;;31.45;10.52;;;;;;;16.42;51.24;103765.19;4958759;29;20035;-58
2021/12/17 09:34:59;;;;;;;26.73;10.13;;;;;;;16.42;51.40;103768.78;4958800;29;20035;-57
2021/12/17 09:37:24;;;;;;;28.20;9.38;;;;;;;16.42;50.44;103773.31;4958538;29;20035;-58
2021/12/17 09:39:50;;;;;;;32.15;10.52;;;;;;;16.41;51.63;103775.19;4941702;29;20101;-58
2021/12/17 09:42:16;;;;;;;31.50;10.73;;;;;;;16.42;50.63;103774.19;4958995;29;20042;-59
2021/12/17 09:44:41;;;;;;;31.80;10.75;;;;;;;16.38;51.38;103756.44;4931327;29;20086;-59
2021/12/17 09:47:07;;;;;;;26.40;10.27;;;;;;;16.43;50.47;103772.38;4940207;29;20039;-59
2021/12/17 09:49:32;;;;;;;34.90;11.13;;;;;;;16.44;51.42;103774.13;4941905;29;20028;-58
2021/12/17 09:51:59;;;;;;;34.72;10.85;;;;;;;16.45;51.56;103782.13;4939304;29;20031;-58
2021/12/17 09:54:25;;;;;;;33.53;11.25;;;;;;;16.45;49.98;103776.72;4944423;29;20031;-58
2021/12/17 09:56:50;;;;;;;30.83;10.32;;;;;;;16.45;50.30;103776.72;4940938;29;20039;-58
2021/12/17 09:59:16;;;;;;;30.42;9.65;;;;;;;16.45;50.12;103779.41;4940737;29;20077;-59
2021/12/17 10:01:43;;;;;;;36.65;11.10;;;;;;;16.47;50.01;103774.78;4925195;29;20042;-58
2021/12/17 10:04:17;;;;;;;32.75;10.82;;;;;;;16.47;50.93;103782.88;4940944;29;20038;-59
2021/12/17 10:06:44;;;;;;;36.38;11.77;;;;;;;16.48;51.45;103786.47;4926428;29;20392;-58
2021/12/17 10:09:09;;;;;;;36.28;11.38;;;;;;;16.44;51.44;103775.00;4938978;29;20039;-59
2021/12/17 10:11:35;;;;;;;39.10;10.77;;;;;;;16.44;51.48;103776.81;4906005;29;20378;-59
2021/12/17 10:14:22;;;;;;;41.97;12.48;;;;;;;16.45;50.02;103787.53;4938865;29;20404;-58
2021/12/17 10:16:47;;;;;;;36.50;11.45;;;;;;;16.43;50.53;103784.06;4938721;29;20375;-58
2021/12/17 10:19:44;;;;;;;34.33;10.68;;;;;;;16.47;50.67;103790.16;4921883;29;20032;-58
2021/12/17 10:22:12;;;;;;;45.70;11.45;;;;;;;16.48;50.07;103781.94;4921874;29;20028;-58
2021/12/17 10:24:42;;;;;;;36.50;10.50;;;;;;;16.49;50.71;103789.09;4938316;29;20079;-58
2021/12/17 10:27:27;;;;;;;39.88;11.27;;;;;;;16.50;51.29;103789.97;4938552;29;20111;-58
2021/12/17 10:29:54;;;;;;;32.88;11.75;;;;;;;16.50;50.12;103790.81;4921537;29;20090;-58
2021/12/17 10:32:22;;;;;;;32.92;11.27;;;;;;;16.52;51.51;103786.22;4921508;29;20040;-58
2021/12/17 10:35:03;;;;;;;40.28;12.30;;;;;;;16.54;51.74;103786.13;4938629;29;20389;-58
2021/12/17 10:38:03;;;;;;;38.75;12.88;;;;;;;16.55;51.72;103777.94;4934277;29;20031;-58
2021/12/17 10:40:29;;;;;;;28.73;12.70;;;;;;;16.57;51.39;103781.41;4916447;29;20042;-58
2021/12/17 10:46:05;;;;;;;36.13;11.70;;;;;;;16.58;50.09;103775.00;4957757;29;20035;-58
2021/12/17 10:48:50;;;;;;;42.97;12.45;;;;;;;16.62;51.64;103779.28;4957126;29;20396;-58
2021/12/17 10:54:20;;;;;;;35.28;12.45;;;;;;;16.61;50.55;103777.53;4957693;29;20031;-58
2021/12/17 10:56:54;;;;;;;33.00;12.73;;;;;;;16.63;49.98;103781.03;4956889;29;20038;-58
2021/12/17 10:59:31;;;;;;;38.15;12.63;;;;;;;16.62;50.40;103773.84;4939560;29;20039;-59
2021/12/17 11:02:10;;;;;;;34.53;11.35;;;;;;;16.62;51.25;103778.41;4956795;29;20438;-59
2021/12/17 11:04:43;;;;;;;28.83;11.02;;;;;;;16.56;51.43;103768.81;4956670;29;20027;-58
2021/12/17 11:07:14;;;;;;;34.50;12.02;;;;;;;16.63;51.05;103786.44;4939680;29;20035;-58
2021/12/17 11:09:54;;;;;;;34.05;13.18;;;;;;;16.65;51.04;103768.25;4956748;29;20027;-58
2021/12/17 11:12:22;;;;;;;39.05;11.95;;;;;;;16.68;50.43;103770.78;4939980;29;20081;-59
2021/12/17 11:14:48;;;;;;;35.22;12.32;;;;;;;16.70;51.22;103766.13;4939564;29;20488;-59
2021/12/17 11:17:15;;;;;;;38.67;11.13;;;;;;;16.72;50.90;103769.59;4956672;29;20030;-58
2021/12/17 11:19:41;;;;;;;29.60;10.95;;;;;;;16.75;50.58;103766.69;4939479;29;20373;-58
2021/12/17 11:22:07;;;;;;;33.70;10.75;;;;;;;16.76;50.51;103764.88;4939769;29;20034;-58
2021/12/17 11:24:34;;;;;;;33.50;11.48;;;;;;;16.77;50.36;103751.25;4956285;29;20047;-58
2021/12/17 11:27:01;;;;;;;31.08;10.95;;;;;;;16.79;49.89;103757.44;4927633;29;20477;-59
2021/12/17 11:29:27;;;;;;;28.55;11.38;;;;;;;16.80;51.53;103759.19;4937789;29;20110;-59
2021/12/17 11:31:53;;;;;;;33.53;11.85;;;;;;;16.81;50.32;103752.78;4937558;29;20028;-58
2021/12/17 11:34:19;;;;;;;29.92;11.43;;;;;;;16.81;50.83;103763.59;4937752;29;20524;-58
2021/12/17 11:36:45;;;;;;;32.78;12.75;;;;;;;16.82;50.63;103749.09;4904397;29;20135;-58
2021/12/17 11:39:22;;;;;;;36.10;12.13;;;;;;;16.82;50.56;103751.81;4937478;29;20032;-58
2021/12/17 11:42:40;;;;;;;26.90;11.70;;;;;;;16.82;50.47;103759.06;4920828;29;20031;-58
2021/12/17 11:47:45;;;;;;;47.08;13.82;;;;;;;16.86;50.97;103755.22;4923092;29;20051;-58
2021/12/17 11:50:13;;;;;;;36.95;12.02;;;;;;;16.87;50.21;103744.25;4920086;29;20056;-58
2021/12/17 11:52:41;;;;;;;45.22;12.70;;;;;;;16.86;51.40;103733.56;4937300;29;20029;-58
2021/12/17 11:55:36;;;;;;;42.78;13.88;;;;;;;16.89;50.48;103736.91;4937836;29;20441;-58
2021/12/17 11:58:06;;;;;;;36.75;11.73;;;;;;;16.88;51.11;103731.59;4918069;29;20119;-59
2021/12/17 12:00:57;;;;;;;41.92;12.57;;;;;;;16.89;50.71;103734.19;4937355;29;20042;-58
2021/12/17 12:03:24;;;;;;;39.20;12.00;;;;;;;16.87;51.31;103735.25;4933604;29;20051;-59
2021/12/17 12:05:54;;;;;;;37.47;11.82;;;;;;;16.83;50.75;103739.16;4920206;29;20035;-58
2021/12/17 12:08:45;;;;;;;32.20;12.27;;;;;;;16.82;50.01;103743.69;4920316;29;20127;-59
2021/12/17 12:11:18;;;;;;;35.78;12.63;;;;;;;16.81;50.54;103736.53;4939250;29;20106;-58
2021/12/17 12:13:48;;;;;;;34.08;12.02;;;;;;;16.79;50.38;103738.47;4923931;29;20131;-58
2021/12/17 12:16:25;;;;;;;42.17;12.40;;;;;;;16.79;50.84;103734.88;4941210;29;20544;-58
2021/12/17 12:18:53;;;;;;;47.72;12.95;;;;;;;16.79;50.20;103735.75;4924145;29;20028;-59
2021/12/17 12:21:21;;;;;;;36.72;13.18;;;;;;;16.79;50.18;103727.66;4941090;29;20028;-58
2021/12/17 12:23:53;;;;;;;38.67;14.10;;;;;;;16.82;51.31;103732.00;4940656;29;20052;-58
2021/12/17 12:26:30;;;;;;;42.08;14.63;;;;;;;16.84;51.23;103736.34;4940844;29;20441;-58
2021/12/17 12:28:59;;;;;;;52.50;13.10;;;;;;;16.84;50.67;103736.34;4923516;29;20095;-59
2021/12/17 12:31:31;;;;;;;46.28;13.57;;;;;;;16.83;51.30;103729.16;4940296;29;20111;-58
2021/12/17 12:34:03;;;;;;;48.30;14.65;;;;;;;16.84;51.00;103730.91;4940554;29;20106;-58
2021/12/17 12:37:05;;;;;;;39.97;11.63;;;;;;;16.85;50.62;103732.66;4940754;29;20062;-58
2021/12/17 12:39:38;;;;;;;40.15;12.00;;;;;;;16.84;50.54;103733.63;4940679;29;20007;-58
2021/12/17 12:42:06;;;;;;;;;;;;;;;16.85;51.29;103726.38;4924252;29;20059;-58
2021/12/17 12:44:47;;;;;;;39.17;13.52;;;;;;;16.84;50.87;103728.22;4940816;29;19997;-58
2021/12/17 12:47:13;;;;;;;42.03;13.18;;;;;;;16.87;51.31;103724.44;4940501;29;20083;-58
2021/12/17 12:49:49;;;;;;;48.67;14.63;;;;;;;16.88;51.40;103727.06;4923636;29;20038;-59
2021/12/17 12:52:32;;;;;;;43.30;13.95;;;;;;;16.91;51.01;103730.53;4940466;29;20162;-59
2021/12/17 12:55:05;;;;;;;49.30;15.13;;;;;;;16.92;50.85;103727.72;4940303;29;20033;-58
2021/12/17 12:57:31;;;;;;;49.38;14.80;;;;;;;16.93;51.24;103728.59;4940066;29;20031;-59
2021/12/17 13:00:06;;;;;;;48.35;16.27;;;;;;;16.93;50.49;103720.47;4940204;29;20032;-59
2021/12/17 13:02:32;;;;;;;48.05;16.23;;;;;;;16.93;50.55;103717.75;4940473;29;20492;-58
2021/12/17 13:04:59;;;;;;;49.15;15.43;;;;;;;16.94;50.85;103719.50;4940011;29;20042;-58
2021/12/17 13:07:34;;;;;;;44.28;16.17;;;;;;;16.94;50.80;103719.50;4939491;29;20020;-58
2021/12/17 13:10:27;;;;;;;55.80;19.38;;;;;;;16.93;49.95;103717.75;4939728;29;20035;-58
2021/12/17 13:13:38;;;;;;;51.00;16.20;;;;;;;16.85;51.23;103711.00;4936928;29;20511;-58
2021/12/17 13:16:12;;;;;;;37.67;14.40;;;;;;;16.95;50.52;103722.09;4939340;29;20493;-58
2021/12/17 13:24:06;;;;;;;46.33;14.95;;;;;;;16.95;50.67;103723.94;4939920;29;20559;-59
2021/12/17 13:26:32;;;;;;;42.58;14.40;;;;;;;16.92;50.77;103716.03;4939768;29;20020;-59
2021/12/17 13:29:21;;;;;;;44.13;15.55;;;;;;;16.95;51.32;103715.81;4939770;29;20031;-58
2021/12/17 13:31:58;;;;;;;50.10;15.95;;;;;;;16.93;51.22;103701.50;4939744;29;20405;-58
2021/12/17 13:34:29;;;;;;;37.33;14.38;;;;;;;16.94;51.58;103705.97;4922778;29;20024;-58
2021/12/17 13:36:54;;;;;;;53.00;16.20;;;;;;;16.94;51.41;103705.97;4939554;29;20027;-58
2021/12/17 13:39:21;;;;;;;53.50;16.17;;;;;;;16.95;51.43;103704.97;4939660;29;20035;-58
2021/12/17 13:41:47;;;;;;;44.70;15.77;;;;;;;16.92;51.18;103708.75;4939761;29;20495;-58
2021/12/17 13:44:39;;;;;;;46.67;15.05;;;;;;;16.88;51.47;103699.97;4939836;29;20393;-58
2021/12/17 13:47:11;;;;;;;41.03;14.68;;;;;;;16.85;50.93;103708.31;4939382;29;20481;-58
2021/12/17 13:49:37;;;;;;;52.27;16.50;;;;;;;16.83;50.93;103707.50;4939417;29;20087;-58
2021/12/17 13:52:04;;;;;;;51.15;17.75;;;;;;;16.83;51.55;103707.50;4922252;29;20270;-58
2021/12/17 13:54:30;;;;;;;51.63;16.10;;;;;;;16.81;51.56;103704.03;4922450;29;20035;-59
2021/12/17 13:56:57;;;;;;;52.15;17.15;;;;;;;16.78;50.84;103703.38;4922074;29;20372;-57
2021/12/17 13:59:33;;;;;;;50.97;14.82;;;;;;;16.78;51.57;103711.47;4922292;29;20114;-58
2021/12/17 14:02:06;;;;;;;54.17;16.70;;;;;;;16.75;50.95;103720.66;4939738;29;20035;-58
2021/12/17 14:04:31;;;;;;;;;;;;;;;16.76;51.67;103718.84;4939595;29;20035;-58
2021/12/17 14:07:04;;;;;;;41.25;13.13;;;;;;;16.75;51.54;103719.84;4921966;29;19910;-58
2021/12/17 14:09:29;;;;;;;51.33;16.75;;;;;;;16.76;50.91;103708.00;4938971;29;20452;-58
2021/12/17 14:11:57;;;;;;;43.05;15.60;;;;;;;16.76;50.96;103708.00;4938736;29;20111;-58
2021/12/17 14:14:27;;;;;;;45.53;15.68;;;;;;;16.73;51.76;103717.22;4938855;29;20023;-58
2021/12/17 14:17:00;;;;;;;47.13;16.25;;;;;;;16.70;51.04;103713.81;4938459;29;20430;-59
2021/12/17 14:19:45;;;;;;;46.50;15.60;;;;;;;16.69;51.38;103712.97;4938516;29;20027;-58
2021/12/17 14:22:31;;;;;;;45.22;15.60;;;;;;;16.69;50.73;103710.28;4938814;29;20393;-59
2021/12/17 14:25:00;;;;;;;46.83;15.80;;;;;;;16.71;52.29;103711.03;4938255;29;20070;-59
2021/12/17 14:27:43;;;;;;;45.17;15.63;;;;;;;16.70;51.17;103706.56;4938310;29;20087;-58
2021/12/17 14:30:09;;;;;;;40.58;14.13;;;;;;;16.71;51.13;103708.31;4938841;29;20111;-60